Time;durP1;ratioP1;P1;durP2;ratioP2;P2;SDS_P1;SDS_P2;PMS_P1;PMS_P2;Temp;Humidity;BMP_temperature;BMP_pressure;BME280_temperature;BME280_humidity;BME280_pressure;Samples;Min_cycle;Max_cycle;Signal;HPM_P1;HPM_P2
2023/12/13 00:02:07;;;;;;;1.83;1.50;;;10.00;99.90;;;;;;5012364;28;20200;-90
2023/12/13 00:04:33;;;;;;;3.13;1.63;;;10.20;99.90;;;;;;5018284;28;20265;-90
2023/12/13 00:06:58;;;;;;;1.87;1.30;;;9.90;99.90;;;;;;5021344;28;20244;-90
2023/12/13 00:09:24;;;;;;;1.70;1.43;;;10.50;99.90;;;;;;5017700;28;20489;-90
2023/12/13 00:11:49;;;;;;;1.43;0.90;;;10.40;99.90;;;;;;5014068;28;20266;-90
2023/12/13 00:14:15;;;;;;;1.87;1.20;;;10.40;99.90;;;;;;5014728;28;20700;-90
2023/12/13 00:16:41;;;;;;;6.50;1.40;;;10.50;99.90;;;;;;5014863;28;20196;-90
2023/12/13 00:19:06;;;;;;;1.80;0.90;;;10.10;99.90;;;;;;5017262;28;20183;-90
2023/12/13 00:21:32;;;;;;;2.40;0.90;;;10.30;99.90;;;;;;5027748;28;20457;-90
2023/12/13 00:23:58;;;;;;;0.90;0.65;;;10.10;99.90;;;;;;5015751;28;20350;-90
2023/12/13 00:26:23;;;;;;;1.37;0.70;;;10.30;99.90;;;;;;5031169;28;20200;-90
2023/12/13 00:28:50;;;;;;;1.30;0.70;;;10.30;99.90;;;;;;5040952;28;20243;-90
2023/12/13 00:31:16;;;;;;;0.80;0.70;;;9.80;99.90;;;;;;5034864;28;20179;-90
2023/12/13 00:33:42;;;;;;;1.33;0.70;;;10.00;99.90;;;;;;5040090;28;20187;-90
2023/12/13 00:36:08;;;;;;;0.80;0.63;;;9.70;99.90;;;;;;5042965;28;20522;-90
2023/12/13 00:38:34;;;;;;;1.03;0.67;;;9.70;99.90;;;;;;5031780;28;20213;-90
2023/12/13 00:40:59;;;;;;;1.10;0.77;;;9.70;99.90;;;;;;5018454;28;20429;-89
2023/12/13 00:43:26;;;;;;;0.73;0.73;;;9.90;99.90;;;;;;5015886;28;20206;-89
2023/12/13 00:45:51;;;;;;;0.93;0.70;;;10.00;99.90;;;;;;5015799;28;20427;-90
2023/12/13 00:48:17;;;;;;;0.60;0.60;;;9.50;99.90;;;;;;5019512;28;20187;-89
2023/12/13 00:50:43;;;;;;;1.63;0.70;;;10.00;99.90;;;;;;5031963;28;20179;-90
2023/12/13 00:53:08;;;;;;;1.23;1.00;;;9.80;99.90;;;;;;5049938;28;20203;-90
2023/12/13 00:55:34;;;;;;;1.50;1.00;;;9.60;99.90;;;;;;5023038;28;20206;-90
2023/12/13 00:57:59;;;;;;;1.70;1.03;;;9.50;99.90;;;;;;5019216;28;20198;-90
2023/12/13 01:00:25;;;;;;;1.30;0.80;;;9.70;99.90;;;;;;5033334;28;20249;-89
2023/12/13 01:02:51;;;;;;;0.80;0.70;;;9.20;99.90;;;;;;5018620;28;20210;-90
2023/12/13 01:05:17;;;;;;;0.80;0.70;;;9.40;99.90;;;;;;5016947;28;20213;-89
2023/12/13 01:07:43;;;;;;;1.13;0.83;;;9.50;99.90;;;;;;5016302;28;20230;-89
2023/12/13 01:10:09;;;;;;;2.08;0.77;;;9.30;99.90;;;;;;5017351;28;20178;-89
2023/12/13 01:12:34;;;;;;;1.57;0.87;;;9.20;99.90;;;;;;5014388;28;20181;-89
2023/12/13 01:15:00;;;;;;;0.70;0.60;;;9.50;99.90;;;;;;5016104;28;20208;-90
2023/12/13 01:17:26;;;;;;;1.73;1.00;;;9.20;99.90;;;;;;5020177;28;20713;-90
2023/12/13 01:19:52;;;;;;;1.27;0.60;;;8.90;99.90;;;;;;5018981;28;20265;-89
2023/12/13 01:22:21;;;;;;;0.80;0.70;;;9.40;99.90;;;;;;5019514;28;20400;-89
2023/12/13 01:24:46;;;;;;;2.88;1.00;;;9.00;99.90;;;;;;5026619;28;20316;-89
2023/12/13 01:27:12;;;;;;;5.10;0.70;;;9.40;99.90;;;;;;5021030;28;20268;-89
2023/12/13 01:29:38;;;;;;;0.90;0.60;;;8.50;99.90;;;;;;5019290;28;20194;-89
2023/12/13 01:32:03;;;;;;;0.80;0.60;;;8.80;99.90;;;;;;5014580;28;20932;-89
2023/12/13 01:34:29;;;;;;;0.67;0.60;;;8.90;99.90;;;;;;5019209;28;20210;-89
2023/12/13 01:36:55;;;;;;;1.00;0.73;;;9.30;99.90;;;;;;5017228;28;20224;-89
2023/12/13 01:39:21;;;;;;;1.43;0.60;;;9.20;99.90;;;;;;5041993;28;20198;-89
2023/12/13 01:41:47;;;;;;;0.80;0.67;;;9.20;99.90;;;;;;5047215;28;20452;-89
2023/12/13 01:44:12;;;;;;;1.40;0.60;;;8.80;99.90;;;;;;5028095;28;20222;-89
2023/12/13 01:46:39;;;;;;;1.27;0.60;;;8.90;99.90;;;;;;5018587;28;20190;-88
2023/12/13 01:49:06;;;;;;;1.25;0.75;;;8.80;99.90;;;;;;5019883;28;20185;-89
2023/12/13 01:51:36;;;;;;;1.52;0.88;;;9.50;99.90;;;;;;5015313;28;20194;-89
2023/12/13 01:54:04;;;;;;;3.60;0.70;;;8.90;99.90;;;;;;5016220;28;20610;-89
2023/12/13 01:56:29;;;;;;;1.17;0.50;;;8.80;99.90;;;;;;5029508;28;20236;-88
2023/12/13 01:58:55;;;;;;;6.20;0.90;;;9.10;99.90;;;;;;5015876;28;20194;-89
2023/12/13 02:01:21;;;;;;;1.05;0.70;;;9.40;99.90;;;;;;5019961;28;20461;-89
2023/12/13 02:03:47;;;;;;;1.17;0.73;;;9.40;99.90;;;;;;5016754;28;20218;-89
2023/12/13 02:06:12;;;;;;;1.37;0.60;;;9.30;99.90;;;;;;5018083;28;20187;-89
2023/12/13 02:08:38;;;;;;;1.57;0.73;;;9.20;99.90;;;;;;5015167;28;20193;-89
2023/12/13 02:11:04;;;;;;;1.30;0.80;;;8.40;99.90;;;;;;5017779;28;20187;-89
2023/12/13 02:13:29;;;;;;;0.60;0.40;;;9.00;99.90;;;;;;5014409;28;20441;-89
2023/12/13 02:15:55;;;;;;;0.80;0.57;;;9.00;99.90;;;;;;5016237;28;20434;-89
2023/12/13 02:18:21;;;;;;;1.50;0.90;;;9.10;99.90;;;;;;5029115;28;20195;-89
2023/12/13 02:20:49;;;;;;;2.20;0.80;;;9.10;99.90;;;;;;5039498;28;20198;-89
2023/12/13 02:23:15;;;;;;;0.95;0.73;;;9.00;99.90;;;;;;5033616;28;20206;-89
2023/12/13 02:25:47;;;;;;;2.70;1.37;;;9.00;99.90;;;;;;5035865;28;20191;-89
2023/12/13 02:28:13;;;;;;;2.80;1.40;;;8.90;99.90;;;;;;5031727;28;20183;-89
2023/12/13 02:30:41;;;;;;;1.77;1.00;;;9.00;99.90;;;;;;5028183;28;20696;-89
2023/12/13 02:33:08;;;;;;;1.35;0.70;;;9.00;99.90;;;;;;5017253;28;20551;-89
2023/12/13 02:35:33;;;;;;;3.10;0.70;;;9.40;99.90;;;;;;5025359;28;20201;-89
2023/12/13 02:37:59;;;;;;;2.00;1.10;;;9.30;99.90;;;;;;5035619;28;20224;-89
2023/12/13 02:40:25;;;;;;;1.30;0.67;;;8.90;99.90;;;;;;5021393;28;20216;-89
2023/12/13 02:42:50;;;;;;;3.23;1.60;;;8.90;99.90;;;;;;5023114;28;20236;-89
2023/12/13 02:45:17;;;;;;;2.53;1.20;;;9.30;99.90;;;;;;5020849;28;20782;-88
2023/12/13 02:47:43;;;;;;;1.88;1.10;;;9.00;99.90;;;;;;5034010;28;20686;-89
2023/12/13 02:50:10;;;;;;;1.00;0.80;;;9.00;99.90;;;;;;5025347;28;20207;-89
2023/12/13 02:52:36;;;;;;;1.75;1.00;;;9.50;99.90;;;;;;5022904;28;20273;-89
2023/12/13 02:55:02;;;;;;;1.80;1.30;;;9.20;99.90;;;;;;5026273;28;20296;-89
2023/12/13 02:57:27;;;;;;;2.40;0.90;;;9.40;99.90;;;;;;5042356;28;20284;-90
2023/12/13 02:59:53;;;;;;;2.60;1.40;;;8.80;99.90;;;;;;5040262;28;20182;-89
2023/12/13 03:02:18;;;;;;;1.63;1.50;;;9.20;99.90;;;;;;5043477;28;20179;-90
2023/12/13 03:04:44;;;;;;;3.17;1.10;;;9.40;99.90;;;;;;5044258;28;20249;-89
2023/12/13 03:07:09;;;;;;;1.30;0.90;;;9.10;99.90;;;;;;5038161;28;20183;-88
2023/12/13 03:09:35;;;;;;;1.53;1.27;;;8.80;99.90;;;;;;5048978;28;20178;-90
2023/12/13 03:12:00;;;;;;;1.23;1.10;;;8.80;99.90;;;;;;5025103;28;20772;-91
2023/12/13 03:14:26;;;;;;;1.43;0.97;;;8.80;99.90;;;;;;5013076;28;20221;-91
2023/12/13 03:16:52;;;;;;;1.23;0.90;;;9.00;99.90;;;;;;5023833;28;20191;-91
2023/12/13 03:19:17;;;;;;;1.67;0.80;;;9.00;99.90;;;;;;5013907;28;20203;-89
2023/12/13 03:21:43;;;;;;;1.10;0.90;;;8.90;99.90;;;;;;5018307;28;20223;-91
2023/12/13 03:24:08;;;;;;;2.43;1.00;;;8.90;99.90;;;;;;5020614;28;20221;-89
2023/12/13 03:26:34;;;;;;;2.10;0.73;;;8.90;99.90;;;;;;5025210;28;20190;-89
2023/12/13 03:28:59;;;;;;;2.50;1.00;;;8.70;99.90;;;;;;5002005;28;20257;-89
2023/12/13 03:31:25;;;;;;;1.53;1.10;;;9.00;99.90;;;;;;5020317;28;20193;-89
2023/12/13 03:33:51;;;;;;;2.30;0.90;;;9.50;99.90;;;;;;5021647;28;20301;-89
2023/12/13 03:36:16;;;;;;;0.87;0.70;;;8.80;99.90;;;;;;5018181;28;20190;-91
2023/12/13 03:38:45;;;;;;;2.83;1.00;;;9.10;99.90;;;;;;5020051;28;20201;-91
2023/12/13 03:41:11;;;;;;;1.00;0.90;;;9.10;99.90;;;;;;5027322;28;20192;-91
2023/12/13 03:43:37;;;;;;;3.27;0.90;;;8.90;99.90;;;;;;5023055;28;20210;-91
2023/12/13 03:46:02;;;;;;;1.60;0.80;;;9.50;99.90;;;;;;5014168;28;20184;-91
2023/12/13 03:48:28;;;;;;;2.73;0.83;;;8.90;99.90;;;;;;5016331;28;20556;-88
2023/12/13 03:50:53;;;;;;;1.50;1.07;;;8.80;99.90;;;;;;5015947;28;20581;-90
2023/12/13 03:53:19;;;;;;;1.93;0.63;;;9.00;99.90;;;;;;5021985;28;20197;-91
2023/12/13 03:55:44;;;;;;;1.47;0.80;;;9.10;99.90;;;;;;5013935;28;20662;-91
2023/12/13 03:58:10;;;;;;;2.23;0.77;;;8.90;99.90;;;;;;5013541;28;20195;-91
2023/12/13 04:00:35;;;;;;;1.63;0.70;;;8.90;99.90;;;;;;5016270;28;20190;-90
2023/12/13 04:03:01;;;;;;;1.40;0.60;;;9.00;99.90;;;;;;5016207;28;20210;-90
2023/12/13 04:05:27;;;;;;;1.17;0.80;;;9.00;99.90;;;;;;5015317;28;20274;-91
2023/12/13 04:07:52;;;;;;;2.33;0.80;;;9.30;99.90;;;;;;5009867;28;20479;-90
2023/12/13 04:10:19;;;;;;;2.10;0.77;;;9.20;99.90;;;;;;5042201;28;20556;-89
2023/12/13 04:12:45;;;;;;;1.23;0.80;;;8.70;99.90;;;;;;5013753;28;20183;-91
2023/12/13 04:15:11;;;;;;;3.17;1.13;;;8.50;99.90;;;;;;5018139;28;20202;-91
2023/12/13 04:17:37;;;;;;;5.15;3.38;;;8.40;99.90;;;;;;5016086;28;20442;-91
2023/12/13 04:20:03;;;;;;;1.07;0.93;;;8.70;99.90;;;;;;5018902;28;20174;-91
2023/12/13 04:22:28;;;;;;;3.55;1.10;;;8.30;99.90;;;;;;5014185;28;20597;-91
2023/12/13 04:24:54;;;;;;;1.67;0.97;;;8.40;99.90;;;;;;5014711;28;20214;-91
2023/12/13 04:27:19;;;;;;;1.80;0.90;;;8.50;99.90;;;;;;5038531;28;20225;-91
2023/12/13 04:29:45;;;;;;;1.17;0.93;;;8.50;99.90;;;;;;5012027;28;20229;-90
2023/12/13 04:32:10;;;;;;;2.60;0.90;;;8.90;99.90;;;;;;5021669;28;20188;-91
2023/12/13 04:34:36;;;;;;;2.80;1.10;;;8.50;99.90;;;;;;5021612;28;20690;-88
2023/12/13 04:37:01;;;;;;;2.50;1.33;;;8.70;99.90;;;;;;5021635;28;20196;-91
2023/12/13 04:39:27;;;;;;;11.53;1.70;;;8.70;99.90;;;;;;5014899;28;20497;-90
2023/12/13 04:41:52;;;;;;;1.80;1.00;;;8.20;99.90;;;;;;5013956;28;20207;-88
2023/12/13 04:44:18;;;;;;;3.13;1.20;;;8.00;99.90;;;;;;5017191;28;20254;-88
2023/12/13 04:46:44;;;;;;;1.20;1.00;;;7.90;99.90;;;;;;5026493;28;20217;-88
2023/12/13 04:49:09;;;;;;;2.37;1.00;;;7.80;99.90;;;;;;5013936;28;20200;-88
2023/12/13 04:51:35;;;;;;;6.00;1.43;;;8.10;99.90;;;;;;5011474;28;20190;-89
2023/12/13 04:54:01;;;;;;;2.30;1.50;;;8.00;99.90;;;;;;5015906;28;20201;-88
2023/12/13 04:56:27;;;;;;;2.20;1.40;;;8.10;99.90;;;;;;5014320;28;20477;-89
2023/12/13 04:58:53;;;;;;;1.63;1.40;;;8.30;99.90;;;;;;5015646;28;20304;-88
2023/12/13 05:01:18;;;;;;;7.40;1.30;;;8.10;99.90;;;;;;5017568;28;20189;-88
2023/12/13 05:03:45;;;;;;;2.57;1.30;;;7.80;99.90;;;;;;5021075;28;21043;-88
2023/12/13 05:06:11;;;;;;;1.48;1.20;;;7.90;99.90;;;;;;5012508;28;20186;-88
2023/12/13 05:08:37;;;;;;;1.30;1.20;;;8.10;99.90;;;;;;5014244;28;20559;-90
2023/12/13 05:11:02;;;;;;;4.10;1.70;;;8.30;99.90;;;;;;5015247;28;20186;-90
2023/12/13 05:13:28;;;;;;;2.03;1.20;;;8.10;99.90;;;;;;5015480;28;20252;-88
2023/12/13 05:15:53;;;;;;;2.57;1.30;;;8.00;99.90;;;;;;5023767;28;20201;-89
2023/12/13 05:18:19;;;;;;;2.60;1.13;;;8.00;99.90;;;;;;5042530;28;20174;-88
2023/12/13 05:20:45;;;;;;;2.83;1.40;;;8.20;99.90;;;;;;5016177;28;20265;-90
2023/12/13 05:23:11;;;;;;;2.33;1.52;;;8.50;99.90;;;;;;5014021;28;20215;-90
2023/12/13 05:25:38;;;;;;;2.73;1.47;;;8.20;99.90;;;;;;5018946;28;20186;-91
2023/12/13 05:28:04;;;;;;;1.67;1.35;;;8.00;99.90;;;;;;5007226;28;20648;-91
2023/12/13 05:30:29;;;;;;;2.10;1.40;;;8.60;99.90;;;;;;5036980;28;20177;-89
2023/12/13 05:32:56;;;;;;;1.73;1.60;;;8.20;99.90;;;;;;5039294;28;20453;-90
2023/12/13 05:35:21;;;;;;;2.05;1.67;;;8.10;99.90;;;;;;5039256;28;20215;-90
2023/12/13 05:37:47;;;;;;;1.47;1.17;;;8.00;99.90;;;;;;5027893;28;20216;-90
2023/12/13 05:40:12;;;;;;;2.60;1.30;;;8.50;99.90;;;;;;5018389;28;20666;-90
2023/12/13 05:42:39;;;;;;;1.60;1.50;;;8.20;99.90;;;;;;5020117;28;20189;-90
2023/12/13 05:45:05;;;;;;;2.58;1.67;;;8.60;99.90;;;;;;5021639;28;20217;-90
2023/12/13 05:47:31;;;;;;;2.25;1.60;;;8.60;99.90;;;;;;5016457;28;20191;-90
2023/12/13 05:49:57;;;;;;;5.43;1.40;;;8.60;99.90;;;;;;5018188;28;20190;-90
2023/12/13 05:52:23;;;;;;;2.50;1.53;;;8.60;99.90;;;;;;5022538;28;20671;-90
2023/12/13 05:54:49;;;;;;;2.30;1.23;;;8.60;99.90;;;;;;5014419;28;20210;-90
2023/12/13 05:57:14;;;;;;;1.93;1.40;;;8.50;99.90;;;;;;5024396;28;20957;-90
2023/12/13 05:59:40;;;;;;;2.37;1.97;;;8.50;99.90;;;;;;5019138;28;20199;-90
2023/12/13 06:02:05;;;;;;;3.43;1.43;;;8.20;99.90;;;;;;5031572;28;20169;-90
2023/12/13 06:04:31;;;;;;;2.03;1.40;;;8.20;99.90;;;;;;5045465;28;20221;-90
2023/12/13 06:06:57;;;;;;;4.73;1.50;;;8.70;99.90;;;;;;5058741;28;20190;-90
2023/12/13 06:09:23;;;;;;;3.75;2.60;;;8.50;99.90;;;;;;5047246;28;20182;-90
2023/12/13 06:11:48;;;;;;;1.37;1.20;;;8.00;99.90;;;;;;5054439;28;20249;-90
2023/12/13 06:14:14;;;;;;;3.77;1.67;;;8.60;99.90;;;;;;5032836;28;20313;-90
2023/12/13 06:16:39;;;;;;;2.90;1.53;;;8.10;99.90;;;;;;5033289;28;20248;-90
2023/12/13 06:19:06;;;;;;;1.80;1.60;;;8.50;99.90;;;;;;5023661;28;20194;-90
2023/12/13 06:21:33;;;;;;;4.43;1.70;;;8.20;99.90;;;;;;5023474;28;20188;-90
2023/12/13 06:23:59;;;;;;;2.25;1.50;;;8.00;99.90;;;;;;5003611;28;20232;-90
2023/12/13 06:26:24;;;;;;;2.30;1.40;;;8.80;99.90;;;;;;5039519;28;20190;-90
2023/12/13 06:28:50;;;;;;;1.70;1.60;;;8.40;99.90;;;;;;5045520;28;20910;-90
2023/12/13 06:31:15;;;;;;;2.43;1.27;;;8.50;99.90;;;;;;5044564;28;20233;-90
2023/12/13 06:33:41;;;;;;;2.10;1.40;;;8.80;99.90;;;;;;5026003;28;20670;-90
2023/12/13 06:36:07;;;;;;;2.23;1.43;;;8.50;99.90;;;;;;5025861;28;20202;-90
2023/12/13 06:38:33;;;;;;;3.60;1.50;;;8.80;99.90;;;;;;5042916;28;20743;-90
2023/12/13 06:40:58;;;;;;;4.07;1.20;;;8.60;99.90;;;;;;5022935;28;20796;-90
2023/12/13 06:43:24;;;;;;;1.40;1.20;;;8.90;99.90;;;;;;5020474;28;20289;-90
2023/12/13 06:45:49;;;;;;;2.50;1.73;;;8.80;99.90;;;;;;5035834;28;20190;-90
2023/12/13 06:48:15;;;;;;;3.00;2.33;;;8.70;99.90;;;;;;5044029;28;20246;-90
2023/12/13 06:50:40;;;;;;;1.90;1.20;;;9.30;99.90;;;;;;5039516;28;20183;-90
2023/12/13 06:53:06;;;;;;;1.47;1.37;;;8.80;99.90;;;;;;5040321;28;20191;-90
2023/12/13 06:55:31;;;;;;;1.77;1.20;;;9.40;99.90;;;;;;5041018;28;20203;-90
2023/12/13 06:57:57;;;;;;;1.60;1.47;;;9.10;99.90;;;;;;5040952;28;20265;-90
2023/12/13 07:00:27;;;;;;;2.07;1.87;;;9.50;99.90;;;;;;5038228;28;20187;-90
2023/12/13 07:02:54;;;;;;;2.33;1.60;;;8.80;99.90;;;;;;5023394;28;20200;-90
2023/12/13 07:05:20;;;;;;;5.77;2.03;;;9.10;99.90;;;;;;5019806;28;20203;-90
2023/12/13 07:07:46;;;;;;;1.83;1.20;;;9.50;99.90;;;;;;5022915;28;20467;-90
2023/12/13 07:10:12;;;;;;;1.98;1.63;;;9.70;99.90;;;;;;5023110;28;20444;-90
2023/12/13 07:12:38;;;;;;;2.10;1.77;;;9.50;99.90;;;;;;5021835;28;20185;-90
2023/12/13 07:15:06;;;;;;;2.40;1.30;;;9.60;99.90;;;;;;5027085;28;20468;-90
2023/12/13 07:17:31;;;;;;;1.58;1.05;;;9.30;99.90;;;;;;5038502;28;20240;-89
2023/12/13 07:19:57;;;;;;;2.10;1.20;;;9.80;99.90;;;;;;5024981;28;20187;-90
2023/12/13 07:22:22;;;;;;;1.67;1.17;;;9.40;99.90;;;;;;5043329;28;20187;-90
2023/12/13 07:24:48;;;;;;;1.13;1.03;;;9.50;99.90;;;;;;5041151;28;20265;-90
2023/12/13 07:27:13;;;;;;;1.80;1.33;;;9.50;99.90;;;;;;5036932;28;20259;-90
2023/12/13 07:29:42;;;;;;;2.63;1.40;;;9.60;99.90;;;;;;5035245;28;20206;-90
2023/12/13 07:32:08;;;;;;;1.20;1.10;;;9.40;99.90;;;;;;5027153;28;20192;-90
2023/12/13 07:34:36;;;;;;;1.60;1.40;;;9.40;99.90;;;;;;5023748;28;20320;-90
2023/12/13 07:37:01;;;;;;;3.75;1.70;;;9.70;99.90;;;;;;5021229;28;20563;-89
2023/12/13 07:39:30;;;;;;;3.33;1.77;;;9.90;99.90;;;;;;5033036;28;20191;-90
2023/12/13 07:41:57;;;;;;;2.85;1.40;;;10.00;99.90;;;;;;5029643;28;20656;-90
2023/12/13 07:44:23;;;;;;;2.88;1.85;;;9.40;99.90;;;;;;5018516;28;20715;-90
2023/12/13 07:46:48;;;;;;;2.37;1.93;;;9.60;99.90;;;;;;5022159;28;20184;-90
2023/12/13 07:49:19;;;;;;;1.93;1.73;;;9.50;99.90;;;;;;5023721;28;20187;-90
2023/12/13 07:51:44;;;;;;;1.80;1.63;;;9.50;99.90;;;;;;5018217;28;20183;-90
2023/12/13 07:54:12;;;;;;;2.80;2.10;;;9.60;99.90;;;;;;5025215;28;20208;-90
2023/12/13 07:56:37;;;;;;;1.45;1.23;;;9.60;99.90;;;;;;5029227;28;20190;-90
2023/12/13 07:59:03;;;;;;;3.10;1.50;;;10.00;99.90;;;;;;5022343;28;20658;-88
2023/12/13 08:01:28;;;;;;;2.17;1.30;;;9.30;99.90;;;;;;5020432;28;20646;-90
2023/12/13 08:03:55;;;;;;;2.10;1.63;;;9.70;99.90;;;;;;5032992;28;20217;-90
2023/12/13 08:06:21;;;;;;;2.22;1.65;;;9.70;99.90;;;;;;5043571;28;20252;-90
2023/12/13 08:08:47;;;;;;;2.30;1.70;;;9.40;99.90;;;;;;5045707;28;20192;-90
2023/12/13 08:11:12;;;;;;;2.80;1.67;;;9.60;99.90;;;;;;5033601;28;20676;-90
2023/12/13 08:13:38;;;;;;;2.87;1.40;;;9.30;99.90;;;;;;5013942;28;20200;-90
2023/12/13 08:16:05;;;;;;;3.63;1.40;;;9.40;99.90;;;;;;5026330;28;20206;-89
2023/12/13 08:18:30;;;;;;;1.75;1.30;;;9.50;99.90;;;;;;5018180;28;20434;-88
2023/12/13 08:20:56;;;;;;;1.30;1.20;;;9.40;99.90;;;;;;5029793;28;20263;-90
2023/12/13 08:23:21;;;;;;;1.73;1.00;;;9.80;99.90;;;;;;5042255;28;20209;-89
2023/12/13 08:25:47;;;;;;;1.40;1.03;;;9.80;99.90;;;;;;5029668;28;20187;-89
2023/12/13 08:28:13;;;;;;;4.53;1.83;;;10.20;99.90;;;;;;5016787;28;20185;-89
2023/12/13 08:30:38;;;;;;;0.90;0.80;;;10.20;99.90;;;;;;5024353;28;20212;-89
2023/12/13 08:33:04;;;;;;;1.13;1.03;;;9.80;99.90;;;;;;5025535;28;20186;-90
2023/12/13 08:35:29;;;;;;;1.70;1.20;;;9.90;99.90;;;;;;5016436;28;20203;-90
2023/12/13 08:37:55;;;;;;;2.27;1.40;;;9.60;99.90;;;;;;5023689;28;20206;-89
2023/12/13 08:40:20;;;;;;;1.63;1.40;;;9.70;99.90;;;;;;5033687;28;20192;-90
2023/12/13 08:42:46;;;;;;;2.40;1.33;;;9.80;99.90;;;;;;5021635;28;20189;-90
2023/12/13 08:45:13;;;;;;;1.98;1.52;;;10.20;99.90;;;;;;5027717;28;20704;-90
2023/12/13 08:47:39;;;;;;;2.60;1.33;;;10.20;99.90;;;;;;5021216;28;20192;-90
2023/12/13 08:50:06;;;;;;;2.65;2.17;;;10.20;99.90;;;;;;5026021;28;20321;-89
2023/12/13 08:52:32;;;;;;;4.85;2.38;;;9.90;99.90;;;;;;5024244;28;20246;-89
2023/12/13 08:54:57;;;;;;;4.10;2.30;;;10.40;99.90;;;;;;5027626;28;20231;-90
2023/12/13 08:57:23;;;;;;;4.30;1.90;;;10.40;99.90;;;;;;5022348;28;20889;-89
2023/12/13 08:59:48;;;;;;;1.70;1.60;;;10.50;99.90;;;;;;5016894;28;20615;-90
2023/12/13 09:02:14;;;;;;;3.57;2.00;;;10.20;99.90;;;;;;5011886;28;20192;-89
2023/12/13 09:04:39;;;;;;;3.40;2.47;;;10.50;99.90;;;;;;5018965;28;20214;-90
2023/12/13 09:07:06;;;;;;;4.40;2.27;;;10.30;99.90;;;;;;5002816;28;20188;-90
2023/12/13 09:09:32;;;;;;;4.53;3.20;;;10.50;99.90;;;;;;5022938;28;20179;-90
2023/12/13 09:11:58;;;;;;;5.10;3.53;;;10.10;99.90;;;;;;5014909;28;20594;-89
2023/12/13 09:14:25;;;;;;;13.13;3.35;;;10.50;99.90;;;;;;5017788;28;20459;-90
2023/12/13 09:16:51;;;;;;;4.70;2.42;;;10.10;99.90;;;;;;5011066;28;20295;-90
2023/12/13 09:19:16;;;;;;;2.30;1.60;;;10.70;99.90;;;;;;5031592;28;20226;-90
2023/12/13 09:21:42;;;;;;;2.77;2.40;;;10.60;99.90;;;;;;5023077;28;20206;-90
2023/12/13 09:24:07;;;;;;;4.63;2.30;;;10.90;99.90;;;;;;5010171;28;20355;-90
2023/12/13 09:26:35;;;;;;;2.70;2.40;;;10.60;99.90;;;;;;5018035;28;20198;-89
2023/12/13 09:29:01;;;;;;;5.88;2.63;;;10.60;99.90;;;;;;5014311;28;20230;-90
2023/12/13 09:31:27;;;;;;;2.28;2.08;;;10.40;99.90;;;;;;5017804;28;20275;-90
2023/12/13 09:33:53;;;;;;;2.27;1.47;;;10.90;99.90;;;;;;5010831;28;20205;-89
2023/12/13 09:36:19;;;;;;;2.33;1.40;;;10.80;99.90;;;;;;5033948;28;20605;-90
2023/12/13 09:38:45;;;;;;;3.30;1.55;;;11.00;99.90;;;;;;5012395;28;20211;-90
2023/12/13 09:41:13;;;;;;;2.95;1.70;;;10.80;99.90;;;;;;5016557;28;20180;-90
2023/12/13 09:43:41;;;;;;;2.63;1.55;;;10.80;99.90;;;;;;5021166;28;20451;-88
2023/12/13 09:46:12;;;;;;;3.53;1.95;;;11.30;99.90;;;;;;5020113;28;20182;-90
2023/12/13 09:48:38;;;;;;;3.50;2.13;;;11.40;99.90;;;;;;5020075;28;20183;-89
2023/12/13 09:51:05;;;;;;;4.10;1.63;;;11.30;99.90;;;;;;5015480;28;20264;-89
2023/12/13 09:53:33;;;;;;;1.70;1.60;;;11.20;99.90;;;;;;5018291;28;20268;-89
2023/12/13 09:56:00;;;;;;;2.28;1.58;;;10.90;99.90;;;;;;5014587;28;20693;-90
2023/12/13 09:58:26;;;;;;;4.50;2.33;;;11.20;99.90;;;;;;5016178;28;20192;-89
2023/12/13 10:00:52;;;;;;;2.20;1.70;;;10.80;99.90;;;;;;5019315;28;20189;-90
2023/12/13 10:03:17;;;;;;;2.37;1.30;;;10.70;99.90;;;;;;5014922;28;20212;-89
2023/12/13 10:05:47;;;;;;;2.60;1.37;;;11.50;99.90;;;;;;5021298;28;20437;-89
2023/12/13 10:08:14;;;;;;;3.15;1.80;;;10.50;99.90;;;;;;5031920;28;20462;-89
2023/12/13 10:10:41;;;;;;;2.38;1.40;;;11.40;99.90;;;;;;5022196;28;20253;-91
2023/12/13 10:13:09;;;;;;;3.85;1.98;;;11.40;99.90;;;;;;5016554;28;20551;-89
2023/12/13 10:15:35;;;;;;;2.42;1.73;;;11.50;99.90;;;;;;5020519;28;20188;-90
2023/12/13 10:18:01;;;;;;;3.90;1.43;;;11.30;99.90;;;;;;5017489;28;20192;-89
2023/12/13 10:20:28;;;;;;;2.13;1.80;;;11.10;99.90;;;;;;5018313;28;20478;-89
2023/12/13 10:22:54;;;;;;;1.90;1.23;;;10.90;99.90;;;;;;5018878;28;20439;-89
2023/12/13 10:25:23;;;;;;;2.40;1.20;;;11.30;99.90;;;;;;5019982;28;20212;-90
2023/12/13 10:27:55;;;;;;;3.95;2.80;;;11.10;99.90;;;;;;5017772;28;20444;-90
2023/12/13 10:30:20;;;;;;;2.30;1.40;;;11.40;99.90;;;;;;5020501;28;20190;-90
2023/12/13 10:32:46;;;;;;;1.47;1.30;;;10.90;99.90;;;;;;5024619;28;20203;-89
2023/12/13 10:35:11;;;;;;;1.77;1.67;;;11.30;99.90;;;;;;5035490;28;20208;-90
2023/12/13 10:37:40;;;;;;;1.40;1.00;;;11.00;99.90;;;;;;5022202;28;20262;-89
2023/12/13 10:40:07;;;;;;;3.60;1.40;;;10.50;99.90;;;;;;5027570;28;20213;-90
2023/12/13 10:42:37;;;;;;;1.75;1.17;;;11.30;99.90;;;;;;5028167;28;20181;-89
2023/12/13 10:45:05;;;;;;;2.70;1.85;;;11.50;99.90;;;;;;5028609;28;20321;-89
2023/12/13 10:47:35;;;;;;;2.72;1.30;;;11.70;99.90;;;;;;5018848;28;20205;-90
2023/12/13 10:50:02;;;;;;;2.28;1.60;;;12.50;99.90;;;;;;5025782;28;20224;-90
2023/12/13 10:52:30;;;;;;;3.30;1.85;;;12.90;99.90;;;;;;5032156;28;20508;-90
2023/12/13 10:54:57;;;;;;;2.25;1.50;;;13.40;99.90;;;;;;5017642;28;20213;-90
2023/12/13 10:57:23;;;;;;;4.82;2.60;;;13.20;99.90;;;;;;5023596;28;20220;-90
2023/12/13 10:59:49;;;;;;;4.37;2.20;;;13.70;99.90;;;;;;5020096;28;20675;-90
2023/12/13 11:02:18;;;;;;;3.17;1.98;;;13.90;99.90;;;;;;5019733;28;20182;-90
2023/12/13 11:04:45;;;;;;;2.17;1.52;;;14.60;99.90;;;;;;5039490;28;20219;-91
2023/12/13 11:07:11;;;;;;;2.30;1.40;;;14.70;99.90;;;;;;5022622;28;20232;-90
2023/12/13 11:09:52;;;;;;;1.98;1.40;;;14.20;99.90;;;;;;5026140;28;20185;-90
2023/12/13 11:12:18;;;;;;;1.50;1.05;;;14.00;99.90;;;;;;5021275;28;20186;-89
2023/12/13 11:14:51;;;;;;;2.20;1.27;;;13.80;99.90;;;;;;5019795;28;20232;-90
2023/12/13 11:17:19;;;;;;;3.25;1.50;;;13.70;99.90;;;;;;5039846;28;20186;-90
2023/12/13 11:19:46;;;;;;;3.20;2.63;;;13.90;99.90;;;;;;5029663;28;20696;-89
2023/12/13 11:22:12;;;;;;;2.42;1.10;;;13.30;99.90;;;;;;5034227;28;20200;-89
2023/12/13 11:24:40;;;;;;;2.38;1.40;;;13.00;99.90;;;;;;5023803;28;20237;-89
2023/12/13 11:27:10;;;;;;;1.50;1.02;;;13.20;99.90;;;;;;5020582;28;20245;-89
2023/12/13 11:29:35;;;;;;;2.20;1.20;;;13.60;99.90;;;;;;5005302;28;20179;-89
2023/12/13 11:32:03;;;;;;;1.30;1.20;;;13.30;99.90;;;;;;5021249;28;20186;-89
2023/12/13 11:34:34;;;;;;;1.83;1.20;;;13.90;99.90;;;;;;5010224;28;20669;-90
2023/12/13 11:37:05;;;;;;;2.97;1.85;;;13.90;99.90;;;;;;5021418;28;20190;-90
2023/12/13 11:39:33;;;;;;;1.70;1.40;;;14.70;99.90;;;;;;5027672;28;20181;-90
2023/12/13 11:42:00;;;;;;;2.58;1.58;;;14.20;99.90;;;;;;5050618;28;20231;-91
2023/12/13 11:44:30;;;;;;;1.60;1.30;;;14.50;99.90;;;;;;5030939;28;20611;-90
2023/12/13 11:46:56;;;;;;;4.07;1.20;;;13.80;99.90;;;;;;5028822;28;20178;-90
2023/12/13 11:49:23;;;;;;;2.40;1.17;;;13.50;99.90;;;;;;5020082;28;20182;-90
2023/12/13 11:51:48;;;;;;;1.58;1.20;;;13.80;99.90;;;;;;5027845;28;20186;-90
2023/12/13 11:54:14;;;;;;;3.23;1.60;;;12.90;99.90;;;;;;5022003;28;20228;-90
2023/12/13 11:56:43;;;;;;;3.73;1.47;;;13.60;99.90;;;;;;5020616;28;20244;-90
2023/12/13 11:59:09;;;;;;;10.13;9.15;;;13.40;99.90;;;;;;5036889;28;20285;-91
2023/12/13 12:01:35;;;;;;;2.17;1.60;;;13.20;99.90;;;;;;5021318;28;20220;-90
2023/12/13 12:04:01;;;;;;;3.10;1.70;;;12.80;99.90;;;;;;5022611;28;20905;-91
2023/12/13 12:06:28;;;;;;;33.60;27.63;;;12.90;99.90;;;;;;5020725;28;20459;-90
2023/12/13 12:08:54;;;;;;;1.92;1.83;;;12.80;99.90;;;;;;5000008;28;20432;-90
2023/12/13 12:11:20;;;;;;;2.43;1.57;;;12.80;99.90;;;;;;5023188;28;20636;-90
2023/12/13 12:13:48;;;;;;;1.40;1.20;;;13.20;99.90;;;;;;5019039;28;20616;-91
2023/12/13 12:16:14;;;;;;;1.73;1.17;;;13.00;99.90;;;;;;5024042;28;20357;-91
2023/12/13 12:18:41;;;;;;;1.65;1.55;;;13.50;99.90;;;;;;5018468;28;20187;-90
2023/12/13 12:21:11;;;;;;;2.45;1.33;;;13.80;99.90;;;;;;5028117;28;20186;-90
2023/12/13 12:23:44;;;;;;;1.45;1.20;;;13.50;99.90;;;;;;5051323;28;20213;-90
2023/12/13 12:26:12;;;;;;;1.10;0.90;;;13.90;99.90;;;;;;5041202;28;20265;-90
2023/12/13 12:28:38;;;;;;;2.28;1.55;;;13.50;99.90;;;;;;5041627;28;20198;-90
2023/12/13 12:31:04;;;;;;;1.80;1.20;;;13.60;99.90;;;;;;5041876;28;20185;-90
2023/12/13 12:33:30;;;;;;;1.35;0.82;;;13.40;99.90;;;;;;5015461;28;20309;-90
2023/12/13 12:35:57;;;;;;;2.67;1.10;;;13.70;99.90;;;;;;5027581;28;20531;-90
2023/12/13 12:38:23;;;;;;;2.05;0.90;;;13.40;99.90;;;;;;5033448;28;20445;-91
2023/12/13 12:40:50;;;;;;;3.00;1.95;;;13.40;99.90;;;;;;5032238;28;20181;-90
2023/12/13 12:43:18;;;;;;;1.30;1.20;;;13.40;99.90;;;;;;5039075;28;20174;-90
2023/12/13 12:45:44;;;;;;;1.35;1.25;;;13.70;99.90;;;;;;5041605;28;20183;-90
2023/12/13 12:48:10;;;;;;;2.37;1.07;;;13.70;99.90;;;;;;5028880;28;20285;-91